KMHL/MHL METAR and TAF weather

Enter ICAO airport designator
Station Type Date Time Source
KMHL METAR 2021/08/05 03:35 UTC NOAA

KMHL 050335Z AUTO 11004KT 10SM CLR 20/15 A3012 RMK AO2


Station Type Date Time Source
KMHL Decoded METAR 2021/08/05 03:35 UTC NOAA

Station name not available
Aug 04, 2021 - 11:35 PM EDT / 2021.08.05 0335 UTC
Wind: from the ESE (110 degrees) at 5 MPH (4 KT):0
Visibility: 10 mile(s):0
Sky conditions: clear
Temperature: 68 F (20 C)
Dew Point: 59 F (15 C)
Relative Humidity: 72%
Pressure (altimeter): 30.12 in. Hg (1019 hPa)
ob: KMHL 050335Z AUTO 11004KT 10SM CLR 20/15 A3012 RMK AO2
cycle: 3

Station Type Date Time Source
KMHL TAF UTC NOAA

Error!

Example: see airport list